createdAt,value
2023-01-11T00:00:56.889Z,1.00
2023-01-11T00:03:28.828Z,1.08
2023-01-11T00:05:57.585Z,1.50
2023-01-11T00:08:26.271Z,1.55
2023-01-11T00:10:55.717Z,1.50
2023-01-11T00:13:24.345Z,1.50
2023-01-11T00:15:53.937Z,1.20
2023-01-11T00:18:22.169Z,1.48
2023-01-11T00:20:50.240Z,1.10
2023-01-11T00:23:18.821Z,1.40
2023-01-11T00:25:46.849Z,1.35
2023-01-11T00:28:14.871Z,1.20
2023-01-11T00:30:42.903Z,1.30
2023-01-11T00:33:13.288Z,1.50
2023-01-11T00:35:41.909Z,1.55
2023-01-11T00:38:30.092Z,1.20
2023-01-11T00:41:18.409Z,1.45
2023-01-11T00:44:03.784Z,1.20
2023-01-11T00:46:49.888Z,1.33
2023-01-11T00:49:19.265Z,1.20
2023-01-11T00:51:47.481Z,1.92
2023-01-11T00:54:16.065Z,1.98
2023-01-11T00:56:44.486Z,1.38
2023-01-11T00:59:12.459Z,1.70
2023-01-11T01:01:41.335Z,1.45
2023-01-11T01:04:09.515Z,1.55
2023-01-11T01:06:39.179Z,1.10
2023-01-11T01:09:07.129Z,1.17
2023-01-11T01:11:35.314Z,1.30
2023-01-11T01:14:21.254Z,1.40
2023-01-11T01:16:49.671Z,1.27
2023-01-11T01:19:18.055Z,1.33
2023-01-11T01:21:47.669Z,1.15
2023-01-11T01:24:16.246Z,1.30
2023-01-11T01:26:44.484Z,1.13
2023-01-11T01:29:14.712Z,1.13
2023-01-11T01:31:42.955Z,1.25
2023-01-11T01:34:12.138Z,1.30
2023-01-11T01:36:40.299Z,1.27
2023-01-11T01:39:11.432Z,1.60
2023-01-11T01:41:39.531Z,1.30
2023-01-11T01:44:46.125Z,1.30
2023-01-11T01:47:15.003Z,1.00
2023-01-11T01:49:44.666Z,1.50
2023-01-11T01:52:13.971Z,1.02
2023-01-11T01:54:48.506Z,1.30
2023-01-11T01:57:21.747Z,1.10
2023-01-11T01:59:52.414Z,1.27
2023-01-11T02:02:21.369Z,1.40
2023-01-11T02:04:50.282Z,1.55
2023-01-11T02:07:20.573Z,1.30
2023-01-11T02:09:56.374Z,1.30
2023-01-11T02:12:30.054Z,1.70
2023-01-11T02:15:01.527Z,1.40
2023-01-11T02:17:29.973Z,1.38
2023-01-11T02:20:08.732Z,1.15
2023-01-11T02:23:16.797Z,1.20
2023-01-11T02:26:16.816Z,1.10
2023-01-11T02:28:52.697Z,1.13
2023-01-11T02:31:30.267Z,1.42
2023-01-11T02:34:10.931Z,1.05
2023-01-11T02:36:50.452Z,0.95
2023-01-11T02:39:32.239Z,1.15
2023-01-11T02:42:26.632Z,1.38
2023-01-11T02:45:05.941Z,1.10
2023-01-11T02:47:48.240Z,1.13
2023-01-11T02:50:21.953Z,1.30
2023-01-11T02:52:57.403Z,1.25
2023-01-11T02:55:28.732Z,1.60
2023-01-11T02:58:01.034Z,1.05
2023-01-11T03:00:30.977Z,1.20
2023-01-11T03:03:15.236Z,1.20
2023-01-11T03:05:48.538Z,1.15
2023-01-11T03:08:37.946Z,0.98
2023-01-11T03:11:11.774Z,1.20
2023-01-11T03:13:51.792Z,1.15
2023-01-11T03:16:27.534Z,1.40
2023-01-11T03:19:05.904Z,1.20
2023-01-11T03:21:51.226Z,1.05
2023-01-11T03:24:29.902Z,1.48
2023-01-11T03:27:09.395Z,1.30
2023-01-11T03:29:46.186Z,0.80
2023-01-11T03:32:23.430Z,1.23
2023-01-11T03:35:02.366Z,1.00
2023-01-11T03:37:37.131Z,1.00
2023-01-11T03:40:10.425Z,0.93
2023-01-11T03:43:01.576Z,0.88
2023-01-11T03:45:33.305Z,1.25
2023-01-11T03:48:06.038Z,1.08
2023-01-11T03:50:35.648Z,1.23
2023-01-11T03:53:07.400Z,1.35
2023-01-11T03:55:40.035Z,1.10
2023-01-11T03:58:09.134Z,1.33
2023-01-11T04:00:38.691Z,1.27
2023-01-11T04:03:09.871Z,1.40
2023-01-11T04:05:39.993Z,1.45
2023-01-11T04:08:07.983Z,1.33
2023-01-11T04:10:35.910Z,0.95
2023-01-11T04:13:04.064Z,1.35
2023-01-11T04:15:34.580Z,1.33
2023-01-11T04:18:05.142Z,1.08
2023-01-11T04:20:37.247Z,0.90
2023-01-11T04:23:05.985Z,1.20
2023-01-11T04:25:34.445Z,1.00
2023-01-11T04:28:02.619Z,1.00
2023-01-11T04:30:30.731Z,1.52
2023-01-11T04:33:00.236Z,1.10
2023-01-11T04:35:29.011Z,0.80
2023-01-11T04:37:59.023Z,0.77
2023-01-11T04:40:27.184Z,1.20
2023-01-11T04:42:54.156Z,1.15
2023-01-11T04:45:22.540Z,1.00
2023-01-11T04:47:55.670Z,1.30
2023-01-11T04:52:53.575Z,1.00
2023-01-11T04:55:23.616Z,1.05
2023-01-11T04:57:52.101Z,1.10
2023-01-11T05:00:21.408Z,1.20
2023-01-11T05:02:49.496Z,1.40
2023-01-11T05:05:18.277Z,1.05
2023-01-11T05:07:46.471Z,1.23
2023-01-11T05:10:14.507Z,1.10
2023-01-11T05:12:44.403Z,1.33
2023-01-11T05:15:13.119Z,1.30
2023-01-11T05:17:41.276Z,1.30
2023-01-11T05:20:11.251Z,1.45
2023-01-11T05:22:39.193Z,1.50
2023-01-11T05:25:08.700Z,1.90
2023-01-11T05:27:36.723Z,1.60
2023-01-11T05:30:07.304Z,1.48
2023-01-11T05:32:36.133Z,1.20
2023-01-11T05:35:04.066Z,1.45
2023-01-11T05:37:32.264Z,1.80
2023-01-11T05:40:00.687Z,1.92
2023-01-11T05:42:28.759Z,1.30
2023-01-11T05:45:14.406Z,1.30
2023-01-11T05:47:44.366Z,1.67
2023-01-11T05:50:12.747Z,1.40
2023-01-11T05:52:40.962Z,1.08
2023-01-11T05:55:10.048Z,1.33
2023-01-11T05:57:38.076Z,1.40
2023-01-11T06:00:07.088Z,0.80
2023-01-11T06:02:36.073Z,1.15
2023-01-11T06:05:06.537Z,1.38
2023-01-11T06:07:34.374Z,1.30
2023-01-11T06:10:02.681Z,1.10
2023-01-11T06:12:31.391Z,0.85
2023-01-11T06:14:59.896Z,1.35
2023-01-11T06:17:28.375Z,1.27
2023-01-11T06:19:56.330Z,1.00
2023-01-11T06:22:26.462Z,1.10
2023-01-11T06:24:56.104Z,1.00
2023-01-11T06:27:25.131Z,1.13
2023-01-11T06:29:54.688Z,0.90
2023-01-11T06:32:24.225Z,1.20
2023-01-11T06:34:54.668Z,1.20
2023-01-11T06:37:23.046Z,1.10
2023-01-11T06:39:52.564Z,1.30
2023-01-11T06:42:22.483Z,1.20
2023-01-11T06:44:50.713Z,1.23
2023-01-11T06:47:18.652Z,1.20
2023-01-11T06:49:47.283Z,0.90
2023-01-11T06:52:15.602Z,1.15
2023-01-11T06:54:44.528Z,0.90
2023-01-11T06:57:14.212Z,1.48
2023-01-11T06:59:43.371Z,1.17
2023-01-11T07:02:12.119Z,0.90
2023-01-11T07:04:40.530Z,1.35
2023-01-11T07:07:08.644Z,1.20
2023-01-11T07:09:37.061Z,1.10
2023-01-11T07:12:05.465Z,1.20
2023-01-11T07:14:38.694Z,1.00
2023-01-11T07:17:06.995Z,1.65
2023-01-11T07:19:34.998Z,1.17
2023-01-11T07:22:03.771Z,1.23
2023-01-11T07:24:32.477Z,1.20
2023-01-11T07:27:02.342Z,1.38
2023-01-11T07:29:30.657Z,1.10
2023-01-11T07:32:06.523Z,1.00
2023-01-11T07:34:34.765Z,1.20
2023-01-11T07:37:02.797Z,1.20
2023-01-11T07:39:42.802Z,1.23
2023-01-11T07:42:30.074Z,1.17
2023-01-11T07:44:58.333Z,1.00
2023-01-11T07:47:27.853Z,0.95
2023-01-11T07:49:56.221Z,1.00
2023-01-11T07:52:24.299Z,0.93
2023-01-11T07:54:52.298Z,0.80
2023-01-11T07:57:20.279Z,1.20
2023-01-11T07:59:48.773Z,1.10
2023-01-11T08:02:16.706Z,1.15
2023-01-11T08:04:46.236Z,1.02
2023-01-11T08:07:15.225Z,1.00
2023-01-11T08:09:46.723Z,0.68
2023-01-11T08:12:32.175Z,0.60
2023-01-11T08:15:00.280Z,1.08
2023-01-11T08:17:28.374Z,1.10
2023-01-11T08:19:57.707Z,1.17
2023-01-11T08:22:25.751Z,0.73
2023-01-11T08:24:53.827Z,0.93
2023-01-11T08:27:22.022Z,1.02
2023-01-11T08:29:50.335Z,0.80
2023-01-11T08:32:18.260Z,0.80
2023-01-11T08:34:46.313Z,0.90
2023-01-11T08:37:15.557Z,1.05
2023-01-11T08:39:43.921Z,0.60
2023-01-11T08:42:11.877Z,1.10
2023-01-11T08:44:40.475Z,0.85
2023-01-11T08:47:08.697Z,0.90
2023-01-11T08:49:36.955Z,0.75
2023-01-11T08:52:05.544Z,0.93
2023-01-11T08:54:34.928Z,1.10
2023-01-11T08:57:03.478Z,0.93
2023-01-11T08:59:31.451Z,0.80
2023-01-11T09:01:59.736Z,0.98
2023-01-11T09:04:28.135Z,1.05
2023-01-11T09:06:56.686Z,1.13
2023-01-11T09:09:25.303Z,0.88
2023-01-11T09:12:05.494Z,1.10
2023-01-11T09:14:34.320Z,0.90
2023-01-11T09:17:03.118Z,1.10
2023-01-11T09:19:33.364Z,0.65
2023-01-11T09:22:03.213Z,1.00
2023-01-11T09:24:32.168Z,0.95
2023-01-11T09:27:02.104Z,0.80
2023-01-11T09:29:30.540Z,1.13
2023-01-11T09:31:58.543Z,0.80
2023-01-11T09:34:27.692Z,0.80
2023-01-11T09:36:56.631Z,1.05
2023-01-11T09:39:27.580Z,0.85
2023-01-11T09:42:32.412Z,1.10
2023-01-11T09:45:09.403Z,1.13
2023-01-11T09:47:42.510Z,1.00
2023-01-11T09:52:47.479Z,0.80
2023-01-11T09:55:22.993Z,1.45
2023-01-11T09:58:02.359Z,1.10
2023-01-11T10:00:49.896Z,0.90
2023-01-11T10:03:41.434Z,1.13
2023-01-11T10:06:17.518Z,1.00
2023-01-11T10:18:22.096Z,1.05
2023-01-11T10:18:25.682Z,1.00
2023-01-11T10:21:12.407Z,0.80
2023-01-11T10:23:49.801Z,1.48
2023-01-11T10:26:27.757Z,1.23
2023-01-11T10:29:19.821Z,1.05
2023-01-11T10:32:13.608Z,0.80
2023-01-11T10:35:00.309Z,1.20
2023-01-11T10:37:49.851Z,1.10
2023-01-11T10:40:35.312Z,1.10
2023-01-11T10:43:13.067Z,1.05
2023-01-11T10:45:44.584Z,1.00
2023-01-11T10:48:23.215Z,0.80
2023-01-11T10:51:00.567Z,1.00
2023-01-11T10:53:33.489Z,1.33
2023-01-11T10:56:06.995Z,1.10
2023-01-11T10:59:04.966Z,1.00
2023-01-11T11:01:46.634Z,1.00
2023-01-11T11:04:49.832Z,0.80
2023-01-11T11:07:22.575Z,1.10
2023-01-11T11:09:58.735Z,1.13
2023-01-11T11:12:30.849Z,0.82
2023-01-11T11:15:09.475Z,1.27
2023-01-11T11:17:38.940Z,1.15
2023-01-11T11:20:14.478Z,1.30
2023-01-11T11:22:42.929Z,1.17
2023-01-11T11:25:17.480Z,1.10
2023-01-11T11:27:52.308Z,1.50
2023-01-11T11:30:30.057Z,1.27
2023-01-11T11:33:01.458Z,1.05
2023-01-11T11:35:56.941Z,1.10
2023-01-11T11:38:27.042Z,1.08
2023-01-11T11:41:04.856Z,0.93
2023-01-11T11:43:34.330Z,1.25
2023-01-11T11:46:04.032Z,1.05
2023-01-11T11:48:33.913Z,0.90
2023-01-11T11:51:06.430Z,1.30
2023-01-11T11:53:40.743Z,1.13
2023-01-11T11:56:18.648Z,0.98
2023-01-11T11:58:47.394Z,0.90
2023-01-11T12:01:28.803Z,1.10
2023-01-11T12:04:01.003Z,1.00
2023-01-11T12:06:34.831Z,0.80
2023-01-11T12:09:04.467Z,0.98
2023-01-11T12:11:36.159Z,1.05
2023-01-11T12:14:16.904Z,1.10
2023-01-11T12:16:46.209Z,1.10
2023-01-11T12:19:28.340Z,0.90
2023-01-11T12:22:11.341Z,0.93
2023-01-11T12:24:41.367Z,0.93
2023-01-11T12:27:23.669Z,1.10
2023-01-11T12:30:05.020Z,0.95
2023-01-11T12:33:06.696Z,0.90
2023-01-11T12:35:41.552Z,1.10
2023-01-11T12:38:24.337Z,0.68
2023-01-11T12:41:09.335Z,0.80
2023-01-11T12:44:00.818Z,0.90
2023-01-11T12:46:43.754Z,1.05
2023-01-11T12:49:30.431Z,0.73
2023-01-11T12:52:29.504Z,1.05
2023-01-11T12:55:20.788Z,0.77
2023-01-11T12:58:02.116Z,0.80
2023-01-11T13:01:02.261Z,1.02
2023-01-11T13:03:49.906Z,0.95
2023-01-11T13:06:23.657Z,1.40
2023-01-11T13:09:01.696Z,1.23
2023-01-11T13:11:43.583Z,0.88
2023-01-11T13:14:32.344Z,0.73
2023-01-11T13:17:05.739Z,0.77
2023-01-11T13:19:39.994Z,1.27
2023-01-11T13:22:16.308Z,0.80
2023-01-11T13:24:46.887Z,1.23
2023-01-11T13:27:22.424Z,1.48
2023-01-11T13:29:53.141Z,1.10
2023-01-11T13:32:25.994Z,0.77
2023-01-11T13:34:58.081Z,0.73
2023-01-11T13:37:31.041Z,0.93
2023-01-11T13:40:05.274Z,0.75
2023-01-11T13:42:39.206Z,0.90
2023-01-11T13:45:16.046Z,1.10
2023-01-11T13:47:48.628Z,0.70
2023-01-11T13:50:22.632Z,0.70
2023-01-11T13:53:03.356Z,0.80
2023-01-11T13:55:42.381Z,0.75
2023-01-11T13:58:18.767Z,0.70
2023-01-11T14:00:56.535Z,0.47
2023-01-11T14:03:30.207Z,0.50
2023-01-11T14:06:13.457Z,0.57
2023-01-11T14:09:08.161Z,0.95
2023-01-11T14:11:44.622Z,0.77
2023-01-11T14:14:43.408Z,0.80
2023-01-11T14:17:50.708Z,0.95
2023-01-11T14:20:27.342Z,0.93
2023-01-11T14:23:05.370Z,1.00
2023-01-11T14:25:39.261Z,1.02
2023-01-11T14:28:27.174Z,1.30
2023-01-11T14:31:29.266Z,1.63
2023-01-11T14:34:36.679Z,1.10
2023-01-11T14:37:37.110Z,1.23
2023-01-11T14:40:34.988Z,1.23
2023-01-11T14:43:22.930Z,1.02
2023-01-11T14:46:09.822Z,1.45
2023-01-11T14:48:48.925Z,1.00
2023-01-11T14:51:33.867Z,1.65
2023-01-11T14:54:07.070Z,1.70
2023-01-11T14:59:07.232Z,1.05
2023-01-11T15:02:08.841Z,1.30
2023-01-11T15:04:39.710Z,1.02
2023-01-11T15:07:24.865Z,1.15
2023-01-11T15:09:54.689Z,2.00
2023-01-11T15:12:25.312Z,1.65
2023-01-11T15:14:57.424Z,1.60
2023-01-11T15:17:47.921Z,1.90
2023-01-11T15:20:19.739Z,1.70
2023-01-11T15:22:56.093Z,1.33
2023-01-11T15:25:26.096Z,1.33
2023-01-11T15:27:55.195Z,2.00
2023-01-11T15:30:40.096Z,1.67
2023-01-11T15:33:29.580Z,1.15
2023-01-11T15:36:14.807Z,1.48
2023-01-11T15:38:53.322Z,1.40
2023-01-11T15:41:54.490Z,1.50
2023-01-11T15:44:42.839Z,2.25
2023-01-11T15:47:41.224Z,1.40
2023-01-11T15:50:30.172Z,1.55
2023-01-11T15:53:49.337Z,1.70
2023-01-11T15:56:39.869Z,2.35
2023-01-11T15:59:47.203Z,2.40
2023-01-11T16:02:58.438Z,1.50
2023-01-11T16:05:28.613Z,1.48
2023-01-11T16:08:04.689Z,1.83
2023-01-11T16:10:52.197Z,2.13
2023-01-11T16:13:42.450Z,1.60
2023-01-11T16:16:20.861Z,2.10
2023-01-11T16:18:53.724Z,2.03
2023-01-11T16:21:31.795Z,2.33
2023-01-11T16:24:00.803Z,3.00
2023-01-11T16:26:30.542Z,3.45
2023-01-11T16:28:59.964Z,2.17
2023-01-11T16:31:54.647Z,2.05
2023-01-11T16:34:23.327Z,2.03
2023-01-11T16:36:51.581Z,2.00
2023-01-11T16:39:23.908Z,2.40
2023-01-11T16:41:59.118Z,2.72
2023-01-11T16:44:39.831Z,2.85
2023-01-11T16:47:12.794Z,2.13
2023-01-11T16:49:43.033Z,2.83
2023-01-11T16:52:47.972Z,2.30
2023-01-11T16:55:19.896Z,2.20
2023-01-11T16:57:54.861Z,2.00
2023-01-11T17:00:32.428Z,2.70
2023-01-11T17:03:20.083Z,2.28
2023-01-11T17:05:58.825Z,2.55
2023-01-11T17:08:30.683Z,2.60
2023-01-11T17:11:04.116Z,2.47
2023-01-11T17:14:01.376Z,2.75
2023-01-11T17:16:31.636Z,2.55
2023-01-11T17:19:06.755Z,2.70
2023-01-11T17:21:35.301Z,2.33
2023-01-11T17:24:08.282Z,2.50
2023-01-11T17:26:43.056Z,2.92
2023-01-11T17:29:17.761Z,2.33
2023-01-11T17:31:46.851Z,2.13
2023-01-11T17:34:20.439Z,2.20
2023-01-11T17:36:50.039Z,2.45
2023-01-11T17:39:28.018Z,2.65
2023-01-11T17:42:15.825Z,3.10
2023-01-11T17:45:04.499Z,2.97
2023-01-11T17:47:35.376Z,4.53
2023-01-11T17:50:05.129Z,4.72
2023-01-11T17:52:53.783Z,4.43
2023-01-11T17:55:27.447Z,5.50
2023-01-11T18:00:43.601Z,3.47
2023-01-11T18:03:18.536Z,3.08
2023-01-11T18:05:47.483Z,2.80
2023-01-11T18:08:21.037Z,2.70
2023-01-11T18:10:54.117Z,2.83
2023-01-11T18:15:56.387Z,2.20
2023-01-11T18:19:00.356Z,2.28
2023-01-11T18:21:53.602Z,2.35
2023-01-11T18:24:35.831Z,1.73
2023-01-11T18:27:31.612Z,2.40
2023-01-11T18:30:02.715Z,2.10
2023-01-11T18:32:39.104Z,2.10
2023-01-11T18:35:17.654Z,2.03
2023-01-11T18:37:47.313Z,1.73
2023-01-11T18:40:15.848Z,1.95
2023-01-11T18:42:47.602Z,1.95
2023-01-11T18:45:16.399Z,2.00
2023-01-11T18:47:45.958Z,1.90
2023-01-11T18:50:16.627Z,2.20
2023-01-11T18:52:46.392Z,2.27
2023-01-11T18:55:15.586Z,3.63
2023-01-11T18:57:44.370Z,3.72
2023-01-11T19:00:16.879Z,3.88
2023-01-11T19:02:46.817Z,3.92
2023-01-11T19:05:18.711Z,2.60
2023-01-11T19:07:47.326Z,2.47
2023-01-11T19:10:16.341Z,2.40
2023-01-11T19:12:45.400Z,2.13
2023-01-11T19:15:14.013Z,2.40
2023-01-11T19:17:42.776Z,2.10
2023-01-11T19:20:15.750Z,2.58
2023-01-11T19:22:44.042Z,4.63
2023-01-11T19:25:13.200Z,4.50
2023-01-11T19:27:41.965Z,3.88
2023-01-11T19:30:12.031Z,2.95
2023-01-11T19:32:40.701Z,4.25
2023-01-11T19:35:09.297Z,2.38
2023-01-11T19:37:41.428Z,2.70
2023-01-11T19:40:12.137Z,3.33
2023-01-11T19:42:40.680Z,2.08
2023-01-11T19:45:10.002Z,2.33
2023-01-11T19:47:38.358Z,2.05
2023-01-11T19:50:08.379Z,1.58
2023-01-11T19:52:37.180Z,1.52
2023-01-11T19:55:09.966Z,2.05
2023-01-11T19:57:38.458Z,2.30
2023-01-11T20:00:07.163Z,1.88
2023-01-11T20:02:35.699Z,2.50
2023-01-11T20:05:05.524Z,1.90
2023-01-11T20:07:34.163Z,1.80
2023-01-11T20:10:02.753Z,1.50
2023-01-11T20:12:32.593Z,1.67
2023-01-11T20:15:01.617Z,1.80
2023-01-11T20:17:29.808Z,1.75
2023-01-11T20:19:58.860Z,1.60
2023-01-11T20:22:26.955Z,2.40
2023-01-11T20:24:56.114Z,2.15
2023-01-11T20:27:24.482Z,1.67
2023-01-11T20:29:53.899Z,2.00
2023-01-11T20:32:40.427Z,2.28
2023-01-11T20:35:11.398Z,2.40
2023-01-11T20:37:39.717Z,2.88
2023-01-11T20:40:09.109Z,2.00
2023-01-11T20:42:37.379Z,2.33
2023-01-11T20:45:07.971Z,3.08
2023-01-11T20:47:36.088Z,3.42
2023-01-11T20:50:04.624Z,2.00
2023-01-11T20:52:32.633Z,2.50
2023-01-11T20:55:01.277Z,2.92
2023-01-11T20:57:29.826Z,2.20
2023-01-11T20:59:58.363Z,1.88
2023-01-11T21:02:29.665Z,2.00
2023-01-11T21:04:58.392Z,2.08
2023-01-11T21:07:26.791Z,1.77
2023-01-11T21:09:55.054Z,1.98
2023-01-11T21:12:23.562Z,2.10
2023-01-11T21:14:52.987Z,1.60
2023-01-11T21:17:21.199Z,2.10
2023-01-11T21:19:50.739Z,1.92
2023-01-11T21:22:19.153Z,2.40
2023-01-11T21:24:48.389Z,1.67
2023-01-11T21:27:16.920Z,1.60
2023-01-11T21:29:45.162Z,1.80
2023-01-11T21:32:15.678Z,1.40
2023-01-11T21:34:43.636Z,2.20
2023-01-11T21:37:12.857Z,2.00
2023-01-11T21:39:40.811Z,2.28
2023-01-11T21:42:09.161Z,1.52
2023-01-11T21:44:38.713Z,1.95
2023-01-11T21:47:07.900Z,1.58
2023-01-11T21:49:37.011Z,1.83
2023-01-11T21:52:05.259Z,1.73
2023-01-11T21:54:35.913Z,2.10
2023-01-11T21:57:04.243Z,2.10
2023-01-11T21:59:33.755Z,2.05
2023-01-11T22:02:02.071Z,2.80
2023-01-11T22:04:30.682Z,2.05
2023-01-11T22:07:00.238Z,2.17
2023-01-11T22:09:28.441Z,2.58
2023-01-11T22:11:57.881Z,2.20
2023-01-11T22:14:26.303Z,1.45
2023-01-11T22:16:55.831Z,1.83
2023-01-11T22:19:24.212Z,1.88
2023-01-11T22:21:52.549Z,2.17
2023-01-11T22:24:21.490Z,1.95
2023-01-11T22:26:50.036Z,2.08
2023-01-11T22:29:20.048Z,2.22
2023-01-11T22:31:51.464Z,1.50
2023-01-11T22:34:21.993Z,2.22
2023-01-11T22:36:50.175Z,1.98
2023-01-11T22:39:19.576Z,1.52
2023-01-11T22:41:48.445Z,1.63
2023-01-11T22:44:16.757Z,1.77
2023-01-11T22:46:47.133Z,1.52
2023-01-11T22:49:16.004Z,2.30
2023-01-11T22:51:44.657Z,2.20
2023-01-11T22:54:13.245Z,2.88
2023-01-11T22:56:42.031Z,3.65
2023-01-11T22:59:10.698Z,2.60
2023-01-11T23:01:40.043Z,2.60
2023-01-11T23:04:13.243Z,1.90
2023-01-11T23:06:43.154Z,2.13
2023-01-11T23:09:16.707Z,2.33
2023-01-11T23:12:03.603Z,1.55
2023-01-11T23:14:33.205Z,1.65
2023-01-11T23:17:05.739Z,2.00
2023-01-11T23:19:37.203Z,1.73
2023-01-11T23:22:05.679Z,1.77
2023-01-11T23:24:34.341Z,1.70
2023-01-11T23:27:05.105Z,1.90
2023-01-11T23:29:33.818Z,2.15
2023-01-11T23:32:03.662Z,2.80
2023-01-11T23:34:32.507Z,1.88
2023-01-11T23:37:01.888Z,1.88
2023-01-11T23:39:30.654Z,1.65
2023-01-11T23:42:17.021Z,1.95
2023-01-11T23:44:47.137Z,2.10
2023-01-11T23:47:25.456Z,2.10
2023-01-11T23:49:56.521Z,1.85
2023-01-11T23:52:28.518Z,2.10
2023-01-11T23:54:57.067Z,1.90
2023-01-11T23:57:26.714Z,1.50
2023-01-11T23:59:55.065Z,1.45
